Time;durP1;ratioP1;P1;durP2;ratioP2;P2;SDS_P1;SDS_P2;PMS_P1;PMS_P2;Temp;Humidity;BMP_temperature;BMP_pressure;BME280_temperature;BME280_humidity;BME280_pressure;Samples;Min_cycle;Max_cycle;Signal;HPM_P1;HPM_P2
2022/10/05 00:01:41;;;;;;;;;10.67;10.33;;;;;18.11;100.00;101715.00;4968392;28;45575;-70
2022/10/05 00:04:14;;;;;;;;;10.67;9.33;;;;;18.08;100.00;101710.69;4967447;28;45288;-70
2022/10/05 00:06:44;;;;;;;;;10.33;9.67;;;;;18.04;100.00;101711.22;4985486;28;45328;-70
2022/10/05 00:09:19;;;;;;;;;11.00;11.00;;;;;17.98;100.00;101706.41;4985428;28;45335;-70
2022/10/05 00:11:45;;;;;;;;;11.00;9.33;;;;;17.96;100.00;101701.09;4985739;28;45359;-70
2022/10/05 00:14:17;;;;;;;;;15.33;14.00;;;;;17.89;100.00;101700.94;4984978;28;46457;-70
2022/10/05 00:16:42;;;;;;;;;9.67;9.67;;;;;17.88;100.00;101704.72;4984956;28;45468;-70
2022/10/05 00:19:21;;;;;;;;;13.00;13.00;;;;;17.85;100.00;101698.69;4985271;28;45531;-69
2022/10/05 00:21:47;;;;;;;;;10.00;10.00;;;;;17.84;100.00;101696.97;4968076;28;45421;-72
2022/10/05 00:24:16;;;;;;;;;11.67;11.67;;;;;17.79;100.00;101699.38;4984875;28;46055;-70
2022/10/05 00:26:42;;;;;;;;;13.00;12.00;;;;;17.72;100.00;101695.59;4985014;28;45436;-72
2022/10/05 00:29:33;;;;;;;;;10.00;10.00;;;;;17.73;100.00;101697.31;4984740;28;45211;-71
2022/10/05 00:31:58;;;;;;;;;12.00;12.00;;;;;17.72;100.00;101690.97;4982698;28;45455;-71
2022/10/05 00:34:24;;;;;;;;;12.33;11.33;;;;;17.71;100.00;101683.75;4966946;28;46664;-71
2022/10/05 00:36:49;;;;;;;;;13.00;13.00;;;;;17.74;100.00;101683.41;4985117;28;45235;-72
2022/10/05 00:39:17;;;;;;;;;11.67;11.67;;;;;17.75;100.00;101687.03;4984758;28;45206;-71
2022/10/05 00:41:58;;;;;;;;;10.67;10.33;;;;;17.70;100.00;101671.03;4985545;28;45263;-71
2022/10/05 00:44:29;;;;;;;;;14.33;13.00;;;;;17.74;100.00;101686.16;4966426;28;46223;-71
2022/10/05 00:47:19;;;;;;;;;14.67;12.67;;;;;17.75;100.00;101693.34;4985033;28;45419;-71
2022/10/05 00:50:05;;;;;;;;;17.00;15.00;;;;;17.76;100.00;101684.09;4985075;28;45302;-71
2022/10/05 00:52:43;;;;;;;;;14.33;14.33;;;;;17.78;100.00;101684.78;4984564;28;45587;-72
2022/10/05 00:55:53;;;;;;;;;13.67;12.67;;;;;17.82;100.00;101685.31;4984666;28;46407;-71
2022/10/05 00:58:24;;;;;;;;;17.33;17.33;;;;;17.84;100.00;101685.97;4946869;28;45576;-71
2022/10/05 01:01:11;;;;;;;;;18.33;15.67;;;;;17.82;100.00;101682.56;4984596;28;45332;-71
2022/10/05 01:04:14;;;;;;;;;18.67;16.00;;;;;17.84;100.00;101678.59;4984815;28;45435;-71
2022/10/05 01:06:58;;;;;;;;;19.00;16.67;;;;;17.85;100.00;101676.69;4984507;28;45574;-71
2022/10/05 01:09:42;;;;;;;;;20.00;17.00;;;;;17.92;100.00;101687.84;4967136;28;45357;-71
2022/10/05 01:12:40;;;;;;;;;16.67;15.00;;;;;17.89;100.00;101681.69;4984559;28;45312;-71
2022/10/05 01:15:24;;;;;;;;;20.67;18.67;;;;;17.87;100.00;101678.25;4966900;28;45328;-72
2022/10/05 01:18:01;;;;;;;;;16.67;16.67;;;;;17.88;100.00;101682.72;4984482;28;45373;-71
2022/10/05 01:20:34;;;;;;;;;18.00;16.67;;;;;17.93;100.00;101689.56;4984244;28;45285;-70
2022/10/05 01:23:39;;;;;;;;;15.33;15.33;;;;;17.92;100.00;101679.59;4984289;28;45490;-70
2022/10/05 01:26:10;;;;;;;;;16.00;14.33;;;;;17.92;100.00;101679.59;4984831;28;45295;-70
2022/10/05 01:28:43;;;;;;;;;16.67;14.67;;;;;17.93;100.00;101678.56;4984169;28;46415;-71
2022/10/05 01:31:27;;;;;;;;;14.00;14.00;;;;;17.96;100.00;101673.59;4991524;28;45396;-70
2022/10/05 01:34:14;;;;;;;;;13.00;13.00;;;;;17.99;100.00;101662.25;4990343;28;44804;-70
2022/10/05 01:36:51;;;;;;;;;15.00;15.00;;;;;17.97;100.00;101663.47;4984485;28;45207;-70
2022/10/05 01:39:37;;;;;;;;;14.00;12.67;;;;;17.99;100.00;101658.63;4966439;28;46622;-70
2022/10/05 01:42:19;;;;;;;;;17.67;14.67;;;;;17.94;100.00;101655.56;4984180;28;45225;-70
2022/10/05 01:44:50;;;;;;;;;20.00;15.67;;;;;17.95;100.00;101665.53;4966058;28;45371;-70
2022/10/05 01:48:02;;;;;;;;;14.67;14.00;;;;;17.94;100.00;101652.81;4984462;28;45376;-71
2022/10/05 01:51:12;;;;;;;;;15.33;15.33;;;;;17.98;100.00;101651.41;4955820;28;45409;-69
2022/10/05 01:53:59;;;;;;;;;14.00;13.00;;;;;17.94;100.00;101650.06;4985381;28;45463;-71
2022/10/05 01:56:27;;;;;;;;;12.67;12.33;;;;;17.89;100.00;101651.44;4982665;28;45507;-72
2022/10/05 01:59:19;;;;;;;;;16.00;13.00;;;;;17.78;100.00;101645.44;4984001;28;45567;-72
2022/10/05 02:01:56;;;;;;;;;15.33;12.33;;;;;17.78;100.00;101635.31;4983728;28;45505;-72
2022/10/05 02:04:31;;;;;;;;;14.67;13.00;;;;;17.83;100.00;101646.63;4983870;28;45477;-72
2022/10/05 02:06:58;;;;;;;;;12.67;11.33;;;;;17.82;100.00;101636.69;4983831;28;45285;-72
2022/10/05 02:09:29;;;;;;;;;11.00;11.00;;;;;17.79;100.00;101644.41;4984399;28;45383;-72
2022/10/05 02:12:01;;;;;;;;;12.00;11.33;;;;;17.80;100.00;101636.00;4983490;28;45373;-71
2022/10/05 02:14:33;;;;;;;;;11.33;11.00;;;;;17.81;100.00;101637.72;4965722;28;45278;-72
2022/10/05 02:17:04;;;;;;;;;9.67;9.67;;;;;17.82;100.00;101633.94;4983792;28;45358;-72
2022/10/05 02:19:36;;;;;;;;;11.00;9.33;;;;;17.80;100.00;101633.25;4984089;28;45246;-72
2022/10/05 02:22:07;;;;;;;;;11.00;11.00;;;;;17.80;100.00;101633.25;4983369;28;45338;-71
2022/10/05 02:24:40;;;;;;;;;14.00;14.00;;;;;17.81;100.00;101636.84;4983466;28;45408;-71
2022/10/05 02:27:09;;;;;;;;;12.33;11.00;;;;;17.81;100.00;101632.22;4965962;28;45291;-71
2022/10/05 02:29:38;;;;;;;;;9.00;7.67;;;;;17.82;100.00;101617.44;4966106;28;45325;-71
2022/10/05 02:32:11;;;;;;;;;11.00;9.67;;;;;17.84;100.00;101614.50;4965688;28;48063;-71
2022/10/05 02:34:42;;;;;;;;;11.00;10.00;;;;;17.86;100.00;101617.94;4965766;28;45264;-71
2022/10/05 02:37:19;;;;;;;;;9.67;8.33;;;;;17.87;100.00;101616.91;4983591;28;45508;-71
2022/10/05 02:40:17;;;;;;;;;10.00;8.00;;;;;17.86;100.00;101605.06;4983695;28;45336;-71
2022/10/05 02:43:10;;;;;;;;;8.00;8.00;;;;;17.85;100.00;101605.22;4965504;28;46374;-71
2022/10/05 02:45:49;;;;;;;;;9.00;8.00;;;;;17.86;100.00;101601.44;4982939;28;45297;-71
2022/10/05 02:48:40;;;;;;;;;6.67;6.67;;;;;17.88;100.00;101605.75;4983499;28;45423;-71
2022/10/05 02:51:31;;;;;;;;;5.00;5.00;;;;;17.89;100.00;101592.84;4956554;28;45458;-71
2022/10/05 02:54:02;;;;;;;;;5.00;5.00;;;;;17.94;100.00;101595.06;4982806;28;46829;-71
2022/10/05 02:56:41;;;;;;;;;9.67;7.00;;;;;17.99;100.00;101595.38;4965382;28;45341;-71
2022/10/05 02:59:41;;;;;;;;;6.33;5.67;;;;;17.97;100.00;101601.06;4983027;28;45302;-71
2022/10/05 03:02:19;;;;;;;;;10.00;8.00;;;;;17.94;100.00;101586.81;4985287;28;45488;-71
2022/10/05 03:05:15;;;;;;;;;7.33;6.67;;;;;17.93;100.00;101596.97;4986271;28;46215;-71
2022/10/05 03:08:01;;;;;;;;;6.00;6.00;;;;;17.99;100.00;101596.25;4986502;28;45166;-71
2022/10/05 03:10:44;;;;;;;;;9.00;6.33;;;;;17.97;100.00;101591.97;4986395;28;45331;-71
2022/10/05 03:13:31;;;;;;;;;4.33;4.33;;;;;17.90;100.00;101587.16;4986788;28;45314;-71
2022/10/05 03:16:12;;;;;;;;;7.00;7.00;;;;;17.90;100.00;101587.16;4986263;28;45475;-71
2022/10/05 03:19:04;;;;;;;;;6.00;6.00;;;;;17.88;100.00;101592.00;4986026;28;45348;-71
2022/10/05 03:21:51;;;;;;;;;6.33;5.00;;;;;17.85;100.00;101585.97;4986280;28;45460;-70
2022/10/05 03:24:37;;;;;;;;;5.00;4.00;;;;;17.80;100.00;101578.25;4986444;28;45320;-71
2022/10/05 03:27:05;;;;;;;;;5.67;4.00;;;;;17.73;100.00;101581.88;4968361;28;47981;-71
2022/10/05 03:29:41;;;;;;;;;4.33;4.33;;;;;17.69;100.00;101575.88;4985813;28;45362;-71
2022/10/05 03:32:37;;;;;;;;;7.67;5.00;;;;;17.72;100.00;101575.53;4968414;28;45561;-71
2022/10/05 03:35:07;;;;;;;;;6.67;5.33;;;;;17.64;100.00;101572.78;4986282;28;45244;-71
2022/10/05 03:37:36;;;;;;;;;5.33;5.33;;;;;17.59;100.00;101566.94;4967723;28;46926;-71
2022/10/05 03:40:32;;;;;;;;;5.33;5.33;;;;;17.52;100.00;101569.53;4985950;28;45167;-71
2022/10/05 03:43:23;;;;;;;;;6.67;6.00;;;;;17.42;100.00;101565.22;4985681;28;45283;-71
2022/10/05 03:46:07;;;;;;;;;5.00;5.00;;;;;17.36;100.00;101569.53;4985496;28;45148;-71
2022/10/05 03:48:43;;;;;;;;;7.33;6.33;;;;;17.26;100.00;101565.22;4967775;28;47222;-71
2022/10/05 03:51:22;;;;;;;;;7.33;6.33;;;;;17.25;100.00;101566.25;4985303;28;45233;-71
2022/10/05 03:53:53;;;;;;;;;6.00;6.00;;;;;17.18;100.00;101567.97;4985339;28;45229;-71
2022/10/05 03:56:59;;;;;;;;;5.67;5.67;;;;;17.13;100.00;101565.75;4986124;28;45439;-71
2022/10/05 03:59:31;;;;;;;;;15.00;13.00;;;;;17.05;100.00;101563.00;4951726;28;45316;-71
2022/10/05 04:02:04;;;;;;;;;7.33;7.33;;;;;16.96;100.00;101558.53;4967339;28;45370;-71
2022/10/05 04:04:37;;;;;;;;;6.00;6.00;;;;;16.90;100.00;101571.06;4985427;28;45308;-71
2022/10/05 04:07:08;;;;;;;;;7.00;6.67;;;;;16.76;100.00;101558.00;4985700;28;45445;-72
2022/10/05 04:09:41;;;;;;;;;8.00;6.33;;;;;16.88;100.00;101567.63;4985319;28;46614;-72
2022/10/05 04:12:21;;;;;;;;;5.67;5.67;;;;;16.89;100.00;101563.84;4966787;28;45497;-71
2022/10/05 04:14:52;;;;;;;;;7.67;6.33;;;;;16.87;100.00;101562.31;4967694;28;45329;-73
2022/10/05 04:17:26;;;;;;;;;7.67;7.67;;;;;16.78;100.00;101561.44;4985477;28;45471;-72
2022/10/05 04:19:59;;;;;;;;;8.33;8.00;;;;;16.68;100.00;101568.97;4984772;28;46143;-73
2022/10/05 04:22:52;;;;;;;;;5.00;5.00;;;;;16.74;100.00;101566.41;4984867;28;45338;-72
2022/10/05 04:25:25;;;;;;;;;7.33;6.00;;;;;16.67;100.00;101559.00;4985238;28;45434;-72
2022/10/05 04:28:12;;;;;;;;;5.67;5.67;;;;;16.70;100.00;101558.69;4985280;28;45408;-72
2022/10/05 04:30:43;;;;;;;;;9.67;7.00;;;;;16.72;100.00;101559.38;4966914;28;45849;-73
2022/10/05 04:33:14;;;;;;;;;6.00;6.00;;;;;16.79;100.00;101563.16;4984405;28;45332;-72
2022/10/05 04:35:40;;;;;;;;;8.00;6.00;;;;;16.85;100.00;101559.75;4984220;28;45505;-73
2022/10/05 04:38:14;;;;;;;;;5.00;5.00;;;;;16.86;100.00;101558.72;4966723;28;45320;-73
2022/10/05 04:40:52;;;;;;;;;9.00;9.00;;;;;16.87;100.00;101560.44;4984028;28;45432;-72
2022/10/05 04:43:41;;;;;;;;;7.00;4.00;;;;;16.84;100.00;101560.75;4984216;28;45356;-73
2022/10/05 04:46:17;;;;;;;;;8.00;8.00;;;;;16.80;100.00;101562.16;4984056;28;45324;-72
2022/10/05 04:49:20;;;;;;;;;9.00;9.00;;;;;16.76;100.00;101560.75;4966360;28;45409;-71
2022/10/05 04:52:09;;;;;;;;;5.00;5.00;;;;;16.74;100.00;101557.31;4965878;28;47845;-74
2022/10/05 04:55:12;;;;;;;;;7.00;7.00;;;;;16.69;100.00;101552.34;4969950;28;45269;-73
2022/10/05 04:57:49;;;;;;;;;8.67;7.33;;;;;16.63;100.00;101546.66;4965853;28;45336;-72
2022/10/05 05:00:22;;;;;;;;;7.67;7.00;;;;;16.61;100.00;101548.72;4984456;28;45356;-73
2022/10/05 05:03:14;;;;;;;;;6.67;6.00;;;;;16.55;100.00;101550.22;4982852;28;45430;-73
2022/10/05 05:05:55;;;;;;;;;7.33;6.33;;;;;16.47;100.00;101546.59;4982929;28;45297;-73
2022/10/05 05:08:59;;;;;;;;;6.33;6.33;;;;;16.45;100.00;101544.00;4983431;28;45241;-72
2022/10/05 05:11:39;;;;;;;;;7.00;5.00;;;;;16.41;100.00;101547.25;4952705;28;45516;-72
2022/10/05 05:14:25;;;;;;;;;4.33;4.33;;;;;16.26;100.00;101542.41;4983115;28;45621;-72
2022/10/05 05:17:22;;;;;;;;;7.00;7.00;;;;;16.25;100.00;101537.09;4982922;28;45285;-70
2022/10/05 05:20:26;;;;;;;;;6.67;6.67;;;;;16.24;100.00;101535.38;4983428;28;45218;-73
2022/10/05 05:23:10;;;;;;;;;7.67;7.33;;;;;16.12;100.00;101532.09;4948596;28;45581;-73
2022/10/05 05:25:45;;;;;;;;;8.00;7.00;;;;;16.20;100.00;101539.47;4982204;28;45387;-73
2022/10/05 05:28:11;;;;;;;;;8.00;8.00;;;;;16.24;100.00;101535.38;4982693;28;45361;-73
2022/10/05 05:30:55;;;;;;;;;6.33;5.33;;;;;16.23;100.00;101534.50;4965224;28;45228;-71
2022/10/05 05:33:22;;;;;;;;;8.33;7.00;;;;;16.24;100.00;101536.22;4983184;28;45221;-71
2022/10/05 05:35:50;;;;;;;;;8.00;7.00;;;;;16.22;100.00;101526.44;4982828;28;45258;-73
2022/10/05 05:38:50;;;;;;;;;7.00;7.00;;;;;16.18;100.00;101536.03;4964789;28;45343;-73
2022/10/05 05:41:27;;;;;;;;;8.00;7.00;;;;;16.07;100.00;101523.47;4983035;28;45380;-72
2022/10/05 05:44:04;;;;;;;;;8.00;8.00;;;;;16.02;100.00;101523.13;4983068;28;45194;-73
2022/10/05 05:46:40;;;;;;;;;9.00;9.00;;;;;15.94;100.00;101517.59;4950477;28;45445;-72
2022/10/05 05:49:26;;;;;;;;;8.33;7.67;;;;;15.94;100.00;101523.94;4963144;28;45345;-73
2022/10/05 05:52:09;;;;;;;;;10.67;6.33;;;;;15.88;100.00;101521.00;4963079;28;45314;-72
2022/10/05 05:54:48;;;;;;;;;6.00;6.00;;;;;15.89;100.00;101523.59;4951399;28;45328;-72
2022/10/05 05:57:23;;;;;;;;;11.33;9.00;;;;;15.87;100.00;101517.41;4962991;28;45285;-72
2022/10/05 05:59:56;;;;;;;;;8.33;7.00;;;;;15.85;100.00;101524.09;4963574;28;45217;-73
2022/10/05 06:02:46;;;;;;;;;11.33;9.67;;;;;15.79;100.00;101531.06;4945570;28;45358;-73
2022/10/05 06:05:51;;;;;;;;;9.33;5.00;;;;;15.81;100.00;101536.38;4963200;28;45381;-73
2022/10/05 06:08:29;;;;;;;;;9.00;7.00;;;;;15.81;100.00;101530.91;4945510;28;46524;-72
2022/10/05 06:11:00;;;;;;;;;11.00;9.67;;;;;15.82;100.00;101529.88;4945445;28;45275;-72
2022/10/05 06:13:39;;;;;;;;;9.33;8.00;;;;;15.78;100.00;101523.84;4962581;28;45326;-72
2022/10/05 06:16:17;;;;;;;;;6.67;6.67;;;;;15.83;100.00;101520.66;4945672;28;45341;-73
2022/10/05 06:18:47;;;;;;;;;11.67;10.00;;;;;15.83;100.00;101516.03;4962435;28;45450;-72
2022/10/05 06:21:34;;;;;;;;;6.67;5.33;;;;;15.90;100.00;101524.44;4963118;28;45417;-71
2022/10/05 06:24:18;;;;;;;;;8.00;7.00;;;;;15.92;100.00;101514.19;4963313;28;45384;-72
2022/10/05 06:27:31;;;;;;;;;10.33;8.67;;;;;16.03;100.00;101532.19;4962738;28;45327;-72
2022/10/05 06:30:05;;;;;;;;;16.33;9.00;;;;;16.08;100.00;101524.34;4902021;29;45414;-72
2022/10/05 06:32:40;;;;;;;;;10.00;7.00;;;;;16.18;100.00;101536.91;4883607;29;45436;-72
2022/10/05 06:35:28;;;;;;;;;9.67;8.33;;;;;16.25;100.00;101526.97;4925062;28;45477;-73
2022/10/05 06:38:06;;;;;;;;;10.67;8.00;;;;;16.32;100.00;101527.16;4947898;28;45552;-71
2022/10/05 06:40:45;;;;;;;;;8.00;8.00;;;;;16.33;100.00;101523.41;4965859;28;46287;-73
2022/10/05 06:43:42;;;;;;;;;10.67;7.33;;;;;16.36;100.00;101526.66;4965882;28;45254;-71
2022/10/05 06:46:29;;;;;;;;;8.00;8.00;;;;;16.42;100.00;101516.06;4983982;28;45185;-71
2022/10/05 06:49:23;;;;;;;;;6.00;6.00;;;;;16.54;100.00;101528.44;4985510;28;45646;-72
2022/10/05 06:51:59;;;;;;;;;9.00;8.33;;;;;16.48;100.00;101520.88;4962197;28;47220;-73
2022/10/05 06:54:46;;;;;;;;;7.67;7.67;;;;;16.62;100.00;101512.03;4985753;28;45352;-73
2022/10/05 06:57:49;;;;;;;;;6.33;6.00;;;;;16.65;100.00;101511.69;4985872;28;45576;-73
2022/10/05 07:00:23;;;;;;;;;8.00;6.67;;;;;16.62;100.00;101509.28;4985938;28;45403;-72
2022/10/05 07:02:59;;;;;;;;;10.67;8.00;;;;;16.81;100.00;101517.19;4967717;28;47429;-72
2022/10/05 07:05:47;;;;;;;;;7.67;7.67;;;;;16.89;100.00;101519.06;4984677;28;45295;-71
2022/10/05 07:08:19;;;;;;;;;9.33;9.00;;;;;16.95;100.00;101516.50;4985721;28;45392;-71
2022/10/05 07:11:11;;;;;;;;;11.00;9.67;;;;;17.07;100.00;101522.53;4985447;28;45326;-72
2022/10/05 07:14:07;;;;;;;;;12.33;12.33;;;;;17.20;100.00;101505.50;4984508;28;45363;-72
2022/10/05 07:16:40;;;;;;;;;9.00;9.00;;;;;17.18;100.00;101513.06;4985005;28;45423;-71
2022/10/05 07:19:32;;;;;;;;;7.00;7.00;;;;;17.14;100.00;101518.06;4967614;28;45433;-73
2022/10/05 07:22:03;;;;;;;;;8.33;8.00;;;;;17.19;100.00;101531.25;4961755;28;45419;-73
2022/10/05 07:24:33;;;;;;;;;9.67;9.67;;;;;17.19;100.00;101531.25;4967082;28;46047;-73
2022/10/05 07:27:03;;;;;;;;;9.00;9.00;;;;;17.39;100.00;101536.22;4984771;28;45238;-73
2022/10/05 07:29:37;;;;;;;;;13.00;12.33;;;;;17.45;100.00;101534.69;4984978;28;45423;-73
2022/10/05 07:32:22;;;;;;;;;11.67;9.00;;;;;17.62;100.00;101536.38;4986167;28;45559;-72
2022/10/05 07:37:52;;;;;;;;;9.00;9.00;;;;;17.85;100.00;101533.75;4985190;28;45503;-72
2022/10/05 07:37:58;;;;;;;;;11.67;9.33;;;;;18.29;100.00;101529.44;4984890;28;45388;-73
2022/10/05 07:40:31;;;;;;;;;11.33;11.33;;;;;18.57;100.00;101531.72;4967533;28;45496;-72
2022/10/05 07:42:59;;;;;;;;;13.00;11.67;;;;;18.82;100.00;101526.91;4985168;28;45285;-71
2022/10/05 07:45:45;;;;;;;;;19.33;15.00;;;;;18.97;100.00;101533.34;4984454;28;46448;-72
2022/10/05 07:48:21;;;;;;;;;14.67;13.00;;;;;19.10;100.00;101536.31;4971622;28;45244;-73
2022/10/05 07:51:26;;;;;;;;;14.67;14.67;;;;;19.18;100.00;101538.16;4986210;28;45304;-73
2022/10/05 07:54:22;;;;;;;;;10.00;8.67;;;;;19.31;100.00;101539.22;4985739;28;45428;-73
2022/10/05 07:57:04;;;;;;;;;11.00;11.00;;;;;19.55;100.00;101548.34;4984449;28;46041;-73
2022/10/05 07:59:38;;;;;;;;;12.67;11.00;;;;;19.51;100.00;101547.00;4983787;28;45481;-73
2022/10/05 08:02:22;;;;;;;;;12.67;11.33;;;;;19.63;100.00;101557.41;4966497;28;45363;-73
2022/10/05 08:05:15;;;;;;;;;12.33;12.33;;;;;20.02;100.00;101554.34;4984621;28;45668;-72
2022/10/05 08:07:41;;;;;;;;;14.67;10.00;;;;;19.74;100.00;101537.63;4947354;28;47026;-72
2022/10/05 08:10:23;;;;;;;;;9.33;9.00;;;;;20.19;100.00;101553.13;4982581;28;45395;-72
2022/10/05 08:13:15;;;;;;;;;11.00;9.33;;;;;20.50;98.44;101552.06;4984349;28;45352;-72
2022/10/05 08:15:44;;;;;;;;;11.33;10.00;;;;;20.65;97.42;101541.84;4984331;28;45670;-72
2022/10/05 08:18:25;;;;;;;;;10.67;10.67;;;;;20.84;95.18;101548.63;4984358;28;45484;-71
2022/10/05 08:20:57;;;;;;;;;4.00;4.00;;;;;20.97;95.91;101546.84;4984843;28;45313;-71
2022/10/05 08:23:37;;;;;;;;;6.67;6.00;;;;;21.22;94.73;101546.50;4984331;28;45298;-73
2022/10/05 08:26:24;;;;;;;;;6.00;4.67;;;;;21.39;92.54;101539.63;4984298;28;45234;-73
2022/10/05 08:29:14;;;;;;;;;5.00;5.00;;;;;21.43;92.24;101554.75;4982770;28;46326;-73
2022/10/05 08:31:44;;;;;;;;;8.00;5.00;;;;;21.57;91.47;101545.50;4984123;28;45484;-70
2022/10/05 08:34:19;;;;;;;;;7.33;6.33;;;;;21.40;89.87;101549.63;4984767;28;45332;-73
2022/10/05 08:37:06;;;;;;;;;4.67;4.00;;;;;21.26;91.99;101542.25;4985014;28;45567;-73
2022/10/05 08:39:41;;;;;;;;;2.67;2.00;;;;;21.16;93.45;101536.19;4984030;28;46705;-73
2022/10/05 08:42:28;;;;;;;;;6.00;4.00;;;;;21.15;93.55;101553.84;4966333;28;45291;-72
2022/10/05 08:45:35;;;;;;;;;5.00;5.00;;;;;21.00;93.88;101548.38;4983927;28;45553;-73
2022/10/05 08:48:20;;;;;;;;;5.00;5.00;;;;;20.97;94.98;101551.50;4963281;28;45283;-73
2022/10/05 08:51:04;;;;;;;;;6.67;4.00;;;;;20.83;96.43;101553.28;4983581;28;45238;-73
2022/10/05 08:53:38;;;;;;;;;4.00;4.00;;;;;20.70;97.79;101564.19;4965895;28;45194;-72
2022/10/05 08:56:13;;;;;;;;;6.33;5.00;;;;;20.71;99.78;101567.81;4966648;28;45278;-73
2022/10/05 08:58:56;;;;;;;;;6.00;6.00;;;;;20.65;100.00;101569.47;4983980;28;45232;-74
2022/10/05 09:01:48;;;;;;;;;5.67;5.67;;;;;20.58;100.00;101566.63;4984412;28;46325;-73
2022/10/05 09:04:38;;;;;;;;;5.67;4.33;;;;;20.62;100.00;101574.50;4965602;28;45352;-73
2022/10/05 09:07:12;;;;;;;;;5.67;4.00;;;;;20.56;100.00;101570.63;4982417;28;45261;-73
2022/10/05 09:10:02;;;;;;;;;5.00;5.00;;;;;20.37;100.00;101571.22;4966349;28;45333;-73
2022/10/05 09:13:13;;;;;;;;;7.00;7.00;;;;;19.98;100.00;101579.78;4983714;28;46200;-73
2022/10/05 09:16:16;;;;;;;;;9.00;6.00;;;;;19.83;100.00;101571.47;4965651;28;46051;-72
2022/10/05 09:19:09;;;;;;;;;6.00;6.00;;;;;20.05;100.00;101580.72;4984061;28;45389;-75
2022/10/05 09:21:42;;;;;;;;;7.00;6.67;;;;;20.05;100.00;101578.81;4984056;28;45309;-70
2022/10/05 09:24:13;;;;;;;;;7.33;7.33;;;;;20.06;100.00;101579.69;4983849;28;45254;-74
2022/10/05 09:26:57;;;;;;;;;10.00;8.00;;;;;20.05;100.00;101578.81;4983159;28;45329;-73
2022/10/05 09:29:48;;;;;;;;;11.33;8.67;;;;;20.11;100.00;101579.94;4966069;28;45338;-72
2022/10/05 09:32:29;;;;;;;;;6.00;6.00;;;;;20.31;100.00;101570.03;4966570;28;45189;-73
2022/10/05 09:35:00;;;;;;;;;7.00;6.00;;;;;20.25;100.00;101568.06;4983633;28;46078;-72
2022/10/05 09:37:43;;;;;;;;;9.67;7.67;;;;;20.25;100.00;101575.47;4983558;28;45396;-73
2022/10/05 09:40:46;;;;;;;;;5.00;5.00;;;;;20.12;100.00;101559.59;4966387;28;45588;-72
2022/10/05 09:43:14;;;;;;;;;6.00;6.00;;;;;19.87;100.00;101567.28;4983896;28;45170;-71
2022/10/05 09:45:54;;;;;;;;;7.67;4.33;;;;;19.90;100.00;101568.81;4983319;28;45368;-73
2022/10/05 09:48:45;;;;;;;;;7.00;7.00;;;;;19.76;100.00;101565.00;4966344;28;45387;-72
2022/10/05 09:51:52;;;;;;;;;7.33;6.00;;;;;19.81;100.00;101568.06;4966288;28;45391;-72
2022/10/05 09:54:42;;;;;;;;;4.33;1.67;;;;;19.70;100.00;101566.63;4982575;28;45353;-73
2022/10/05 09:57:16;;;;;;;;;5.67;5.67;;;;;19.67;100.00;101577.16;4983644;28;45285;-72
2022/10/05 09:59:47;;;;;;;;;7.00;7.00;;;;;19.78;100.00;101573.97;4983082;28;45274;-72
2022/10/05 10:02:42;;;;;;;;;4.00;4.00;;;;;19.97;100.00;101573.38;4983412;28;45421;-73
2022/10/05 10:05:49;;;;;;;;;6.00;5.00;;;;;20.39;100.00;101569.97;4952947;28;45447;-72
2022/10/05 10:08:30;;;;;;;;;7.33;5.00;;;;;20.72;97.23;101567.63;4983271;28;46426;-72
2022/10/05 10:11:15;;;;;;;;;6.33;4.67;;;;;20.94;95.15;101560.22;4965292;28;45346;-72
2022/10/05 10:13:56;;;;;;;;;3.67;3.67;;;;;21.15;92.58;101562.97;4983429;28;45326;-72
2022/10/05 10:16:29;;;;;;;;;6.00;4.67;;;;;21.18;91.22;101562.63;4966355;28;45265;-72
2022/10/05 10:19:03;;;;;;;;;5.00;5.00;;;;;21.33;90.84;101543.19;4983520;28;45533;-72
2022/10/05 10:21:31;;;;;;;;;5.00;4.67;;;;;21.52;88.25;101558.22;4983110;28;45266;-72
2022/10/05 10:24:24;;;;;;;;;4.00;4.00;;;;;21.66;87.39;101563.66;4965521;28;45298;-72
2022/10/05 10:26:57;;;;;;;;;4.00;4.00;;;;;21.44;86.37;101550.94;4965496;28;45307;-71
2022/10/05 10:29:46;;;;;;;;;6.33;4.00;;;;;21.45;86.40;101562.84;4983034;28;45392;-70
2022/10/05 10:32:22;;;;;;;;;4.67;3.33;;;;;21.70;84.80;101550.28;4965288;28;45521;-70
2022/10/05 10:35:03;;;;;;;;;3.67;3.67;;;;;21.81;81.15;101565.47;4983213;28;45285;-71
2022/10/05 10:37:41;;;;;;;;;3.00;3.00;;;;;21.72;80.14;101560.09;4966019;28;45325;-72
2022/10/05 10:40:33;;;;;;;;;2.33;2.33;;;;;21.63;80.91;101560.44;4983038;28;45330;-71
2022/10/05 10:43:30;;;;;;;;;5.00;3.00;;;;;21.57;80.13;101553.81;4982889;28;45200;-70
2022/10/05 10:46:14;;;;;;;;;5.00;3.00;;;;;21.79;81.05;101562.03;4964971;28;45299;-70
2022/10/05 10:48:58;;;;;;;;;3.67;2.00;;;;;21.88;80.14;101547.00;4983275;28;45256;-70
2022/10/05 10:51:46;;;;;;;;;4.33;4.33;;;;;21.79;80.03;101545.44;4964865;28;46981;-70
2022/10/05 10:54:17;;;;;;;;;2.67;2.00;;;;;21.63;80.57;101539.16;4982342;28;45420;-70
2022/10/05 10:56:45;;;;;;;;;3.00;3.00;;;;;21.51;81.28;101531.63;4983002;28;45346;-72
2022/10/05 10:59:23;;;;;;;;;4.33;4.33;;;;;21.61;82.16;101541.31;4965545;28;45300;-72
2022/10/05 11:02:20;;;;;;;;;7.67;4.67;;;;;21.56;81.50;101532.72;4982538;28;45345;-72
2022/10/05 11:05:05;;;;;;;;;3.00;3.00;;;;;21.44;82.04;101522.44;4970530;28;45540;-72
2022/10/05 11:07:34;;;;;;;;;2.00;2.00;;;;;21.31;82.03;101525.94;4952321;28;45373;-72
2022/10/05 11:10:45;;;;;;;;;4.67;3.00;;;;;21.27;83.26;101513.56;4982966;28;45478;-71
2022/10/05 11:13:51;;;;;;;;;3.67;3.33;;;;;21.36;82.34;101516.00;4922063;28;45498;-72
2022/10/05 11:16:58;;;;;;;;;3.33;3.00;;;;;21.28;83.30;101507.84;4947687;28;45543;-71
2022/10/05 11:19:44;;;;;;;;;2.33;2.33;;;;;21.13;82.63;101500.66;4985408;28;45399;-71
2022/10/05 11:22:44;;;;;;;;;2.00;2.00;;;;;21.14;83.16;101494.94;4983862;28;45162;-71
2022/10/05 11:25:31;;;;;;;;;3.67;2.67;;;;;20.80;84.69;101487.41;4967372;28;46947;-70
2022/10/05 11:28:21;;;;;;;;;5.67;5.67;;;;;21.03;84.50;101508.47;4967948;28;45700;-71
2022/10/05 11:31:02;;;;;;;;;4.67;4.33;;;;;21.24;84.12;101501.03;4986081;28;45249;-72
2022/10/05 11:33:51;;;;;;;;;7.00;5.67;;;;;21.17;84.01;101489.06;4986231;28;45260;-72
2022/10/05 11:36:36;;;;;;;;;2.67;1.33;;;;;21.09;85.57;101480.03;4968177;28;45407;-72
2022/10/05 11:39:39;;;;;;;;;3.00;3.00;;;;;21.23;85.26;101493.78;4985779;28;45625;-72
2022/10/05 11:42:23;;;;;;;;;3.00;3.00;;;;;21.31;84.27;101507.47;4985794;28;45447;-72
2022/10/05 11:45:20;;;;;;;;;3.00;3.00;;;;;21.31;84.38;101501.06;4985823;28;45163;-72
2022/10/05 11:47:48;;;;;;;;;2.67;2.67;;;;;21.30;85.28;101504.91;4985782;28;45477;-72
2022/10/05 11:50:25;;;;;;;;;3.00;3.00;;;;;21.35;85.00;101492.16;4968038;28;45288;-72
2022/10/05 11:52:56;;;;;;;;;2.00;2.00;;;;;21.57;84.68;101501.25;4985677;28;45317;-72
2022/10/05 11:55:28;;;;;;;;;3.67;3.00;;;;;21.50;84.64;101505.88;4985522;28;45527;-72
2022/10/05 11:58:19;;;;;;;;;3.33;3.33;;;;;21.80;84.61;101489.06;4985263;28;46565;-72
2022/10/05 12:01:00;;;;;;;;;1.33;1.33;;;;;21.53;85.56;101488.91;4985428;28;45329;-72
2022/10/05 12:03:55;;;;;;;;;1.00;1.00;;;;;21.54;85.16;101485.09;4985615;28;45219;-72
2022/10/05 12:06:29;;;;;;;;;2.00;2.00;;;;;21.86;84.81;101482.72;4985993;28;45386;-72
2022/10/05 12:09:25;;;;;;;;;3.00;3.00;;;;;21.84;84.33;101479.31;4984979;28;45720;-72
2022/10/05 12:12:08;;;;;;;;;4.00;4.00;;;;;22.11;84.21;101467.34;4976787;28;45339;-72
2022/10/05 12:15:12;;;;;;;;;4.00;4.00;;;;;22.17;82.25;101474.81;4984611;28;45250;-72
2022/10/05 12:17:51;;;;;;;;;3.00;3.00;;;;;22.41;82.58;101481.72;4973443;28;45306;-71
2022/10/05 12:20:24;;;;;;;;;3.67;3.33;;;;;22.46;81.59;101468.94;4967007;28;45542;-72
2022/10/05 12:22:59;;;;;;;;;1.67;1.67;;;;;22.49;82.38;101462.16;4967107;28;45422;-72